createdAt,value
2019-02-22T00:01:40.183Z,-4.70
2019-02-22T00:04:08.604Z,-4.70
2019-02-22T00:06:37.029Z,-4.70
2019-02-22T00:09:05.647Z,-4.70
2019-02-22T00:11:34.055Z,-4.80
2019-02-22T00:14:02.635Z,-4.80
2019-02-22T00:16:32.411Z,-4.80
2019-02-22T00:19:00.902Z,-4.80
2019-02-22T00:21:29.314Z,-4.80
2019-02-22T00:23:57.730Z,-4.80
2019-02-22T00:26:26.149Z,-4.80
2019-02-22T00:28:54.558Z,-4.80
2019-02-22T00:31:22.985Z,-4.90
2019-02-22T00:33:51.403Z,-4.80
2019-02-22T00:36:19.887Z,-4.90
2019-02-22T00:38:48.363Z,-4.90
2019-02-22T00:41:16.843Z,-4.90
2019-02-22T00:43:45.262Z,-4.90
2019-02-22T00:46:13.679Z,-4.90
2019-02-22T00:48:42.088Z,-4.90
2019-02-22T00:51:10.571Z,-5.00
2019-02-22T00:53:39.043Z,-5.00
2019-02-22T00:56:07.461Z,-5.00
2019-02-22T00:58:36.006Z,-5.00
2019-02-22T01:01:04.414Z,-5.00
2019-02-22T01:03:32.915Z,-5.10
2019-02-22T01:06:01.361Z,-5.10
2019-02-22T01:09:23.562Z,-5.00
2019-02-22T01:11:51.970Z,-5.00
2019-02-22T01:14:20.458Z,-5.00
2019-02-22T01:16:48.884Z,-5.00
2019-02-22T01:19:17.366Z,-5.10
2019-02-22T01:21:45.779Z,-5.00
2019-02-22T01:24:14.203Z,-5.00
2019-02-22T01:26:42.619Z,-5.10
2019-02-22T01:29:11.099Z,-5.10
2019-02-22T01:31:39.510Z,-5.10
2019-02-22T01:34:07.990Z,-5.10
2019-02-22T01:36:36.403Z,-5.10
2019-02-22T01:39:05.347Z,-5.10
2019-02-22T01:41:33.755Z,-5.10
2019-02-22T01:44:02.166Z,-5.20
2019-02-22T01:46:30.579Z,-5.10
2019-02-22T01:48:58.986Z,-5.10
2019-02-22T01:51:27.398Z,-5.20
2019-02-22T01:53:55.811Z,-5.10
2019-02-22T01:56:24.220Z,-5.20
2019-02-22T01:58:52.702Z,-5.20
2019-02-22T02:01:21.115Z,-5.20
2019-02-22T02:03:49.607Z,-5.20
2019-02-22T02:06:18.027Z,-5.20
2019-02-22T02:08:46.435Z,-5.30
2019-02-22T02:11:14.850Z,-5.20
2019-02-22T02:13:43.261Z,-5.30
2019-02-22T02:16:11.683Z,-5.30
2019-02-22T02:18:40.095Z,-5.30
2019-02-22T02:21:08.578Z,-5.30
2019-02-22T02:23:36.982Z,-5.30
2019-02-22T02:26:05.457Z,-5.30
2019-02-22T02:28:33.879Z,-5.40
2019-02-22T02:31:02.286Z,-5.30
2019-02-22T02:33:30.701Z,-5.30
2019-02-22T02:35:59.112Z,-5.30
2019-02-22T02:38:27.537Z,-5.40
2019-02-22T02:41:08.047Z,-5.30
2019-02-22T02:43:26.008Z,-5.30
2019-02-22T02:45:54.418Z,-5.40
2019-02-22T02:48:22.831Z,-5.40
2019-02-22T02:50:51.264Z,-5.40
2019-02-22T02:53:19.672Z,-5.40
2019-02-22T02:55:48.095Z,-5.40
2019-02-22T02:58:16.501Z,-5.40
2019-02-22T03:00:45.005Z,-5.40
2019-02-22T03:03:13.411Z,-5.40
2019-02-22T03:05:55.538Z,-5.40
2019-02-22T03:08:25.596Z,-5.40
2019-02-22T03:10:54.102Z,-5.50
2019-02-22T03:13:22.487Z,-5.40
2019-02-22T03:15:50.970Z,-5.40
2019-02-22T03:18:19.388Z,-5.40
2019-02-22T03:20:47.869Z,-5.50
2019-02-22T03:23:16.271Z,-5.50
2019-02-22T03:25:44.682Z,-5.50
2019-02-22T03:28:13.097Z,-5.50
2019-02-22T03:30:41.581Z,-5.50
2019-02-22T03:33:10.093Z,-5.50
2019-02-22T03:35:38.480Z,-5.50
2019-02-22T03:38:06.901Z,-5.50
2019-02-22T03:40:35.305Z,-5.50
2019-02-22T03:43:03.790Z,-5.50
2019-02-22T03:45:32.222Z,-5.50
2019-02-22T03:48:00.724Z,-5.50
2019-02-22T03:50:29.114Z,-5.50
2019-02-22T03:53:14.015Z,-5.60
2019-02-22T03:55:42.429Z,-5.60
2019-02-22T03:58:10.917Z,-5.60
2019-02-22T04:00:39.347Z,-5.60
2019-02-22T04:03:07.816Z,-5.60
2019-02-22T04:05:36.228Z,-5.60
2019-02-22T04:08:07.105Z,-5.60
2019-02-22T04:10:34.702Z,-5.60
2019-02-22T04:13:03.184Z,-5.70
2019-02-22T04:15:31.663Z,-5.60
2019-02-22T04:18:00.153Z,-5.50
2019-02-22T04:20:28.562Z,-5.60
2019-02-22T04:22:57.036Z,-5.50
2019-02-22T04:25:25.450Z,-5.60
2019-02-22T04:27:53.872Z,-5.60
2019-02-22T04:30:22.273Z,-5.50
2019-02-22T04:32:50.701Z,-5.50
2019-02-22T04:35:19.112Z,-5.50
2019-02-22T04:37:47.518Z,-5.50
2019-02-22T04:40:15.942Z,-5.50
2019-02-22T04:42:44.422Z,-5.50
2019-02-22T04:45:12.832Z,-5.40
2019-02-22T04:47:41.317Z,-5.40
2019-02-22T04:50:09.719Z,-5.40
2019-02-22T04:52:38.138Z,-5.40
2019-02-22T04:55:06.551Z,-5.40
2019-02-22T04:57:34.959Z,-5.40
2019-02-22T05:00:03.442Z,-5.40
2019-02-22T05:02:31.859Z,-5.40
2019-02-22T05:05:00.293Z,-5.40
2019-02-22T05:07:28.684Z,-5.40
2019-02-22T05:09:57.099Z,-5.30
2019-02-22T05:12:25.515Z,-5.40
2019-02-22T05:14:53.944Z,-5.40
2019-02-22T05:17:22.355Z,-5.40
2019-02-22T05:19:50.764Z,-5.40
2019-02-22T05:22:19.258Z,-5.40
2019-02-22T05:24:47.671Z,-5.40
2019-02-22T05:27:16.082Z,-5.30
2019-02-22T05:29:44.492Z,-5.30
2019-02-22T05:32:12.903Z,-5.30
2019-02-22T05:34:41.316Z,-5.30
2019-02-22T05:37:09.798Z,-5.30
2019-02-22T05:39:38.216Z,-5.20
2019-02-22T05:42:06.631Z,-5.20
2019-02-22T05:44:35.036Z,-5.30
2019-02-22T05:47:03.522Z,-5.30
2019-02-22T05:49:31.941Z,-5.20
2019-02-22T05:52:00.351Z,-5.20
2019-02-22T05:54:28.768Z,-5.20
2019-02-22T05:56:57.183Z,-5.20
2019-02-22T05:59:25.635Z,-5.10
2019-02-22T06:01:54.102Z,-5.00
2019-02-22T06:04:22.512Z,-5.10
2019-02-22T06:06:50.934Z,-5.00
2019-02-22T06:09:19.355Z,-5.00
2019-02-22T06:11:49.774Z,-4.90
2019-02-22T06:14:18.182Z,-4.80
2019-02-22T06:16:46.603Z,-4.80
2019-02-22T06:19:15.024Z,-4.70
2019-02-22T06:21:43.441Z,-4.70
2019-02-22T06:24:11.888Z,-4.50
2019-02-22T06:26:40.307Z,-4.40
2019-02-22T06:29:08.872Z,-4.20
2019-02-22T06:31:37.267Z,-4.00
2019-02-22T06:34:05.759Z,-3.70
2019-02-22T06:36:34.181Z,-3.60
2019-02-22T06:39:02.767Z,-3.40
2019-02-22T06:41:31.189Z,-3.30
2019-02-22T06:43:59.605Z,-3.40
2019-02-22T06:46:28.023Z,-3.70
2019-02-22T06:48:56.433Z,-3.80
2019-02-22T06:51:24.872Z,-4.00
2019-02-22T06:53:53.354Z,-4.10
2019-02-22T06:56:24.197Z,-4.10
2019-02-22T06:58:51.824Z,-4.20
2019-02-22T07:01:20.248Z,-4.20
2019-02-22T07:03:48.736Z,-4.20
2019-02-22T07:06:17.148Z,-4.20
2019-02-22T07:08:45.636Z,-4.20
2019-02-22T07:11:18.121Z,-4.20
2019-02-22T07:13:46.545Z,-4.00
2019-02-22T07:16:14.956Z,-4.00
2019-02-22T07:18:43.438Z,-4.10
2019-02-22T07:21:11.854Z,-4.10
2019-02-22T07:23:40.334Z,-4.10
2019-02-22T07:26:08.756Z,-4.10
2019-02-22T07:28:37.245Z,-4.00
2019-02-22T07:31:05.656Z,-3.90
2019-02-22T07:33:34.068Z,-3.90
2019-02-22T07:36:02.528Z,-3.80
2019-02-22T07:39:28.005Z,-3.90
2019-02-22T07:41:51.422Z,-3.90
2019-02-22T07:44:19.831Z,-3.80
2019-02-22T07:46:48.253Z,-3.80
2019-02-22T07:49:26.791Z,-3.70
2019-02-22T07:51:55.206Z,-3.70
2019-02-22T07:54:23.692Z,-3.70
2019-02-22T07:56:52.102Z,-3.60
2019-02-22T07:59:20.522Z,-3.60
2019-02-22T08:01:48.931Z,-3.60
2019-02-22T08:04:17.352Z,-3.60
2019-02-22T08:06:45.771Z,-3.60
2019-02-22T08:09:14.187Z,-3.50
2019-02-22T08:11:42.595Z,-3.50
2019-02-22T08:14:11.011Z,-3.40
2019-02-22T08:16:39.433Z,-3.40
2019-02-22T08:19:07.914Z,-3.20
2019-02-22T08:21:36.335Z,-3.20
2019-02-22T08:24:04.738Z,-3.00
2019-02-22T08:26:33.180Z,-3.00
2019-02-22T08:29:01.587Z,-3.00
2019-02-22T08:31:30.009Z,-3.10
2019-02-22T08:33:58.419Z,-3.10
2019-02-22T08:36:26.830Z,-3.00
2019-02-22T08:38:55.323Z,-3.00
2019-02-22T08:41:23.807Z,-3.00
2019-02-22T08:43:52.295Z,-3.00
2019-02-22T08:46:20.780Z,-2.90
2019-02-22T08:48:49.266Z,-3.00
2019-02-22T08:51:17.693Z,-2.90
2019-02-22T08:53:46.100Z,-2.90
2019-02-22T08:56:16.167Z,-2.90
2019-02-22T08:59:25.059Z,-2.80
2019-02-22T09:01:53.561Z,-2.80
2019-02-22T09:04:21.963Z,-2.80
2019-02-22T09:06:52.309Z,-2.70
2019-02-22T09:09:23.060Z,-2.60
2019-02-22T09:11:53.842Z,-2.60
2019-02-22T09:14:22.360Z,-2.60
2019-02-22T09:16:50.860Z,-2.70
2019-02-22T09:19:19.261Z,-2.60
2019-02-22T09:21:47.694Z,-2.60
2019-02-22T09:24:16.179Z,-2.40
2019-02-22T09:26:44.592Z,-2.40
2019-02-22T09:29:13.010Z,-2.40
2019-02-22T09:31:41.418Z,-2.40
2019-02-22T09:34:09.837Z,-2.30
2019-02-22T09:36:38.245Z,-2.30
2019-02-22T09:39:06.662Z,-2.30
2019-02-22T09:41:35.145Z,-2.40
2019-02-22T09:44:03.653Z,-2.40
2019-02-22T09:46:32.079Z,-2.30
2019-02-22T09:49:00.491Z,-2.30
2019-02-22T09:51:28.907Z,-2.30
2019-02-22T09:53:57.344Z,-2.20
2019-02-22T09:56:25.767Z,-2.20
2019-02-22T09:58:54.182Z,-2.20
2019-02-22T10:01:22.601Z,-2.20
2019-02-22T10:03:51.015Z,-2.20
2019-02-22T10:06:19.428Z,-2.10
2019-02-22T10:08:47.861Z,-2.10
2019-02-22T10:11:16.266Z,-2.00
2019-02-22T10:13:44.706Z,-2.00
2019-02-22T10:16:13.123Z,-2.00
2019-02-22T10:18:41.531Z,-2.00
2019-02-22T10:21:09.962Z,-2.00
2019-02-22T10:23:38.356Z,-2.00
2019-02-22T10:26:06.784Z,-2.10
2019-02-22T10:28:36.396Z,-2.10
2019-02-22T10:31:04.788Z,-2.00
2019-02-22T10:33:36.659Z,-2.00
2019-02-22T10:36:03.344Z,-2.00
2019-02-22T10:38:33.858Z,-2.00
2019-02-22T10:41:01.813Z,-2.00
2019-02-22T10:43:30.227Z,-2.00
2019-02-22T10:45:58.713Z,-2.00
2019-02-22T10:48:27.128Z,-1.90
2019-02-22T10:50:55.538Z,-1.90
2019-02-22T10:53:23.951Z,-2.00
2019-02-22T10:55:52.359Z,-1.90
2019-02-22T10:58:20.782Z,-1.90
2019-02-22T11:00:49.191Z,-1.90
